sensor_id;sensor_type;location;lat;lon;timestamp;P1;durP1;ratioP1;P2;durP2;ratioP2
55031;SDS011;40928;51.076;7.950;2024-01-07T00:00:27;7.00;;;3.15;;
55031;SDS011;40928;51.076;7.950;2024-01-07T00:02:53;6.25;;;2.85;;
55031;SDS011;40928;51.076;7.950;2024-01-07T00:05:18;5.40;;;2.78;;
55031;SDS011;40928;51.076;7.950;2024-01-07T00:07:44;7.10;;;3.75;;
55031;SDS011;40928;51.076;7.950;2024-01-07T00:10:09;8.30;;;3.35;;
55031;SDS011;40928;51.076;7.950;2024-01-07T00:12:35;13.70;;;3.88;;
55031;SDS011;40928;51.076;7.950;2024-01-07T00:15:01;5.15;;;3.03;;
55031;SDS011;40928;51.076;7.950;2024-01-07T00:17:27;6.35;;;3.47;;
55031;SDS011;40928;51.076;7.950;2024-01-07T00:19:53;9.00;;;3.45;;
55031;SDS011;40928;51.076;7.950;2024-01-07T00:22:19;7.93;;;3.55;;
55031;SDS011;40928;51.076;7.950;2024-01-07T00:24:44;9.18;;;3.33;;
55031;SDS011;40928;51.076;7.950;2024-01-07T00:27:10;7.18;;;3.85;;
55031;SDS011;40928;51.076;7.950;2024-01-07T00:29:36;9.85;;;4.18;;
55031;SDS011;40928;51.076;7.950;2024-01-07T00:32:02;7.93;;;3.72;;
55031;SDS011;40928;51.076;7.950;2024-01-07T00:34:28;7.05;;;3.78;;
55031;SDS011;40928;51.076;7.950;2024-01-07T00:36:53;5.53;;;3.05;;
55031;SDS011;40928;51.076;7.950;2024-01-07T00:39:19;9.23;;;4.03;;
55031;SDS011;40928;51.076;7.950;2024-01-07T00:41:46;8.95;;;3.70;;
55031;SDS011;40928;51.076;7.950;2024-01-07T00:44:11;8.00;;;3.90;;
55031;SDS011;40928;51.076;7.950;2024-01-07T00:46:37;8.98;;;4.32;;
55031;SDS011;40928;51.076;7.950;2024-01-07T00:49:03;9.07;;;4.68;;
55031;SDS011;40928;51.076;7.950;2024-01-07T00:51:29;6.72;;;3.95;;
55031;SDS011;40928;51.076;7.950;2024-01-07T00:53:55;10.50;;;4.57;;
55031;SDS011;40928;51.076;7.950;2024-01-07T00:56:21;10.25;;;4.53;;
55031;SDS011;40928;51.076;7.950;2024-01-07T00:58:46;7.40;;;3.95;;
55031;SDS011;40928;51.076;7.950;2024-01-07T01:01:12;6.97;;;3.97;;
55031;SDS011;40928;51.076;7.950;2024-01-07T01:03:37;8.98;;;4.70;;
55031;SDS011;40928;51.076;7.950;2024-01-07T01:06:04;9.80;;;4.75;;
55031;SDS011;40928;51.076;7.950;2024-01-07T01:08:30;10.60;;;5.05;;
55031;SDS011;40928;51.076;7.950;2024-01-07T01:10:55;9.25;;;4.80;;
55031;SDS011;40928;51.076;7.950;2024-01-07T01:13:21;7.88;;;4.18;;
55031;SDS011;40928;51.076;7.950;2024-01-07T01:15:46;8.95;;;4.35;;
55031;SDS011;40928;51.076;7.950;2024-01-07T01:18:12;9.48;;;4.32;;
55031;SDS011;40928;51.076;7.950;2024-01-07T01:20:38;9.32;;;4.82;;
55031;SDS011;40928;51.076;7.950;2024-01-07T01:23:03;10.38;;;4.68;;
55031;SDS011;40928;51.076;7.950;2024-01-07T01:25:29;10.05;;;4.28;;
55031;SDS011;40928;51.076;7.950;2024-01-07T01:27:55;9.35;;;4.65;;
55031;SDS011;40928;51.076;7.950;2024-01-07T01:30:21;9.02;;;4.68;;
55031;SDS011;40928;51.076;7.950;2024-01-07T01:32:47;10.00;;;4.90;;
55031;SDS011;40928;51.076;7.950;2024-01-07T01:35:13;10.32;;;4.15;;
55031;SDS011;40928;51.076;7.950;2024-01-07T01:37:39;7.82;;;3.67;;
55031;SDS011;40928;51.076;7.950;2024-01-07T01:40:05;8.80;;;4.28;;
55031;SDS011;40928;51.076;7.950;2024-01-07T01:42:31;7.78;;;4.20;;
55031;SDS011;40928;51.076;7.950;2024-01-07T01:44:57;8.77;;;4.40;;
55031;SDS011;40928;51.076;7.950;2024-01-07T01:47:27;9.35;;;4.90;;
55031;SDS011;40928;51.076;7.950;2024-01-07T01:49:54;9.60;;;4.55;;
55031;SDS011;40928;51.076;7.950;2024-01-07T01:52:20;8.57;;;4.35;;
55031;SDS011;40928;51.076;7.950;2024-01-07T01:54:46;8.80;;;3.88;;
55031;SDS011;40928;51.076;7.950;2024-01-07T01:57:13;10.93;;;3.88;;
55031;SDS011;40928;51.076;7.950;2024-01-07T01:59:42;10.88;;;5.13;;
55031;SDS011;40928;51.076;7.950;2024-01-07T02:02:08;10.27;;;4.90;;
55031;SDS011;40928;51.076;7.950;2024-01-07T02:04:34;11.88;;;5.13;;
55031;SDS011;40928;51.076;7.950;2024-01-07T02:07:00;10.63;;;5.40;;
55031;SDS011;40928;51.076;7.950;2024-01-07T02:09:26;11.68;;;5.75;;
55031;SDS011;40928;51.076;7.950;2024-01-07T02:12:04;10.50;;;5.38;;
55031;SDS011;40928;51.076;7.950;2024-01-07T02:14:30;12.38;;;5.07;;
55031;SDS011;40928;51.076;7.950;2024-01-07T02:16:56;9.02;;;5.25;;
55031;SDS011;40928;51.076;7.950;2024-01-07T02:19:22;12.75;;;5.72;;
55031;SDS011;40928;51.076;7.950;2024-01-07T02:21:49;9.82;;;5.20;;
55031;SDS011;40928;51.076;7.950;2024-01-07T02:24:15;9.73;;;5.55;;
55031;SDS011;40928;51.076;7.950;2024-01-07T02:26:42;9.18;;;4.85;;
55031;SDS011;40928;51.076;7.950;2024-01-07T02:29:10;9.70;;;4.32;;
55031;SDS011;40928;51.076;7.950;2024-01-07T02:31:36;9.65;;;4.93;;
55031;SDS011;40928;51.076;7.950;2024-01-07T02:34:02;11.13;;;5.93;;
55031;SDS011;40928;51.076;7.950;2024-01-07T02:36:28;9.40;;;4.78;;
55031;SDS011;40928;51.076;7.950;2024-01-07T02:38:54;10.38;;;6.20;;
55031;SDS011;40928;51.076;7.950;2024-01-07T02:41:19;12.00;;;6.18;;
55031;SDS011;40928;51.076;7.950;2024-01-07T02:43:46;19.02;;;8.30;;
55031;SDS011;40928;51.076;7.950;2024-01-07T02:46:11;22.92;;;10.60;;
55031;SDS011;40928;51.076;7.950;2024-01-07T02:48:39;13.82;;;6.68;;
55031;SDS011;40928;51.076;7.950;2024-01-07T02:51:05;12.07;;;5.90;;
55031;SDS011;40928;51.076;7.950;2024-01-07T02:53:33;13.30;;;5.00;;
55031;SDS011;40928;51.076;7.950;2024-01-07T02:56:01;13.32;;;5.35;;
55031;SDS011;40928;51.076;7.950;2024-01-07T02:58:27;10.07;;;4.90;;
55031;SDS011;40928;51.076;7.950;2024-01-07T03:00:53;13.80;;;5.60;;
55031;SDS011;40928;51.076;7.950;2024-01-07T03:03:20;11.75;;;5.93;;
55031;SDS011;40928;51.076;7.950;2024-01-07T03:05:46;9.73;;;5.60;;
55031;SDS011;40928;51.076;7.950;2024-01-07T03:08:12;11.00;;;4.97;;
55031;SDS011;40928;51.076;7.950;2024-01-07T03:10:38;8.85;;;4.68;;
55031;SDS011;40928;51.076;7.950;2024-01-07T03:13:03;9.40;;;4.97;;
55031;SDS011;40928;51.076;7.950;2024-01-07T03:15:29;8.95;;;4.10;;
55031;SDS011;40928;51.076;7.950;2024-01-07T03:17:56;9.75;;;4.13;;
55031;SDS011;40928;51.076;7.950;2024-01-07T03:20:22;8.13;;;3.95;;
55031;SDS011;40928;51.076;7.950;2024-01-07T03:22:48;6.45;;;3.65;;
55031;SDS011;40928;51.076;7.950;2024-01-07T03:25:13;10.48;;;4.72;;
55031;SDS011;40928;51.076;7.950;2024-01-07T03:27:39;8.52;;;4.25;;
55031;SDS011;40928;51.076;7.950;2024-01-07T03:30:06;8.05;;;4.15;;
55031;SDS011;40928;51.076;7.950;2024-01-07T03:32:32;9.52;;;4.97;;
55031;SDS011;40928;51.076;7.950;2024-01-07T03:35:01;7.22;;;4.10;;
55031;SDS011;40928;51.076;7.950;2024-01-07T03:37:27;9.68;;;4.68;;
55031;SDS011;40928;51.076;7.950;2024-01-07T03:39:53;11.02;;;4.70;;
55031;SDS011;40928;51.076;7.950;2024-01-07T03:42:19;7.18;;;4.05;;
55031;SDS011;40928;51.076;7.950;2024-01-07T03:44:45;9.82;;;4.65;;
55031;SDS011;40928;51.076;7.950;2024-01-07T03:47:11;10.32;;;5.25;;
55031;SDS011;40928;51.076;7.950;2024-01-07T03:49:36;11.57;;;5.85;;
55031;SDS011;40928;51.076;7.950;2024-01-07T03:52:04;11.77;;;5.90;;
55031;SDS011;40928;51.076;7.950;2024-01-07T03:54:30;11.68;;;5.55;;
55031;SDS011;40928;51.076;7.950;2024-01-07T03:56:56;14.00;;;6.72;;
55031;SDS011;40928;51.076;7.950;2024-01-07T03:59:22;13.57;;;6.50;;
55031;SDS011;40928;51.076;7.950;2024-01-07T04:01:48;12.73;;;6.20;;
55031;SDS011;40928;51.076;7.950;2024-01-07T04:04:14;13.80;;;7.30;;
55031;SDS011;40928;51.076;7.950;2024-01-07T04:06:39;12.20;;;6.05;;
55031;SDS011;40928;51.076;7.950;2024-01-07T04:09:05;13.15;;;6.57;;
55031;SDS011;40928;51.076;7.950;2024-01-07T04:11:31;13.93;;;6.93;;
55031;SDS011;40928;51.076;7.950;2024-01-07T04:13:57;11.23;;;6.32;;
55031;SDS011;40928;51.076;7.950;2024-01-07T04:16:22;12.55;;;6.22;;
55031;SDS011;40928;51.076;7.950;2024-01-07T04:18:48;10.15;;;6.00;;
55031;SDS011;40928;51.076;7.950;2024-01-07T04:21:14;11.57;;;5.55;;
55031;SDS011;40928;51.076;7.950;2024-01-07T04:23:39;11.35;;;6.15;;
55031;SDS011;40928;51.076;7.950;2024-01-07T04:26:09;10.95;;;6.10;;
55031;SDS011;40928;51.076;7.950;2024-01-07T04:28:35;11.80;;;6.75;;
55031;SDS011;40928;51.076;7.950;2024-01-07T04:31:01;12.88;;;6.78;;
55031;SDS011;40928;51.076;7.950;2024-01-07T04:33:27;9.57;;;5.60;;
55031;SDS011;40928;51.076;7.950;2024-01-07T04:35:52;13.32;;;5.47;;
55031;SDS011;40928;51.076;7.950;2024-01-07T04:38:23;11.93;;;6.07;;
55031;SDS011;40928;51.076;7.950;2024-01-07T04:40:48;10.27;;;6.15;;
55031;SDS011;40928;51.076;7.950;2024-01-07T04:43:14;12.82;;;5.63;;
55031;SDS011;40928;51.076;7.950;2024-01-07T04:45:40;13.68;;;6.28;;
55031;SDS011;40928;51.076;7.950;2024-01-07T04:48:06;13.88;;;6.20;;
55031;SDS011;40928;51.076;7.950;2024-01-07T04:50:32;10.77;;;6.22;;
55031;SDS011;40928;51.076;7.950;2024-01-07T04:52:57;11.18;;;5.75;;
55031;SDS011;40928;51.076;7.950;2024-01-07T04:55:23;12.23;;;5.93;;
55031;SDS011;40928;51.076;7.950;2024-01-07T04:57:49;12.07;;;5.93;;
55031;SDS011;40928;51.076;7.950;2024-01-07T05:00:15;12.15;;;6.28;;
55031;SDS011;40928;51.076;7.950;2024-01-07T05:02:42;12.70;;;5.80;;
55031;SDS011;40928;51.076;7.950;2024-01-07T05:05:08;12.25;;;5.63;;
55031;SDS011;40928;51.076;7.950;2024-01-07T05:07:34;12.38;;;6.28;;
55031;SDS011;40928;51.076;7.950;2024-01-07T05:10:00;10.65;;;5.20;;
55031;SDS011;40928;51.076;7.950;2024-01-07T05:12:26;10.80;;;6.05;;
55031;SDS011;40928;51.076;7.950;2024-01-07T05:14:52;11.88;;;6.57;;
55031;SDS011;40928;51.076;7.950;2024-01-07T05:17:17;11.35;;;6.00;;
55031;SDS011;40928;51.076;7.950;2024-01-07T05:19:43;9.25;;;5.65;;
55031;SDS011;40928;51.076;7.950;2024-01-07T05:22:09;10.73;;;5.85;;
55031;SDS011;40928;51.076;7.950;2024-01-07T05:24:38;11.45;;;6.10;;
55031;SDS011;40928;51.076;7.950;2024-01-07T05:27:04;12.68;;;6.20;;
55031;SDS011;40928;51.076;7.950;2024-01-07T05:29:31;12.05;;;5.72;;
55031;SDS011;40928;51.076;7.950;2024-01-07T05:31:59;13.63;;;6.05;;
55031;SDS011;40928;51.076;7.950;2024-01-07T05:34:28;10.43;;;5.95;;
55031;SDS011;40928;51.076;7.950;2024-01-07T05:36:54;14.20;;;5.53;;
55031;SDS011;40928;51.076;7.950;2024-01-07T05:39:19;11.50;;;6.20;;
55031;SDS011;40928;51.076;7.950;2024-01-07T05:41:45;13.07;;;5.95;;
55031;SDS011;40928;51.076;7.950;2024-01-07T05:44:11;11.05;;;6.45;;
55031;SDS011;40928;51.076;7.950;2024-01-07T05:46:38;11.05;;;5.72;;
55031;SDS011;40928;51.076;7.950;2024-01-07T05:49:08;14.13;;;6.57;;
55031;SDS011;40928;51.076;7.950;2024-01-07T05:51:37;14.43;;;6.57;;
55031;SDS011;40928;51.076;7.950;2024-01-07T05:54:04;14.98;;;6.82;;
55031;SDS011;40928;51.076;7.950;2024-01-07T05:56:30;15.00;;;7.00;;
55031;SDS011;40928;51.076;7.950;2024-01-07T05:58:55;14.88;;;6.10;;
55031;SDS011;40928;51.076;7.950;2024-01-07T06:01:21;13.35;;;6.10;;
55031;SDS011;40928;51.076;7.950;2024-01-07T06:03:47;10.80;;;6.53;;
55031;SDS011;40928;51.076;7.950;2024-01-07T06:06:13;14.43;;;6.78;;
55031;SDS011;40928;51.076;7.950;2024-01-07T06:08:43;13.98;;;6.22;;
55031;SDS011;40928;51.076;7.950;2024-01-07T06:11:09;11.60;;;5.97;;
55031;SDS011;40928;51.076;7.950;2024-01-07T06:13:37;16.38;;;6.05;;
55031;SDS011;40928;51.076;7.950;2024-01-07T06:16:03;14.40;;;6.63;;
55031;SDS011;40928;51.076;7.950;2024-01-07T06:18:29;14.98;;;6.65;;
55031;SDS011;40928;51.076;7.950;2024-01-07T06:20:54;12.45;;;5.97;;
55031;SDS011;40928;51.076;7.950;2024-01-07T06:23:20;21.50;;;8.18;;
55031;SDS011;40928;51.076;7.950;2024-01-07T06:25:46;14.45;;;6.10;;
55031;SDS011;40928;51.076;7.950;2024-01-07T06:28:11;17.67;;;7.60;;
55031;SDS011;40928;51.076;7.950;2024-01-07T06:30:37;18.70;;;7.18;;
55031;SDS011;40928;51.076;7.950;2024-01-07T06:33:04;13.68;;;7.18;;
55031;SDS011;40928;51.076;7.950;2024-01-07T06:35:30;19.25;;;7.13;;
55031;SDS011;40928;51.076;7.950;2024-01-07T06:37:56;18.52;;;7.78;;
55031;SDS011;40928;51.076;7.950;2024-01-07T06:40:21;13.75;;;7.30;;
55031;SDS011;40928;51.076;7.950;2024-01-07T06:42:48;15.73;;;7.47;;
55031;SDS011;40928;51.076;7.950;2024-01-07T06:45:14;13.95;;;6.50;;
55031;SDS011;40928;51.076;7.950;2024-01-07T06:47:41;16.42;;;7.53;;
55031;SDS011;40928;51.076;7.950;2024-01-07T06:50:06;18.27;;;7.78;;
55031;SDS011;40928;51.076;7.950;2024-01-07T06:52:32;17.90;;;8.27;;
55031;SDS011;40928;51.076;7.950;2024-01-07T06:54:58;18.17;;;7.65;;
55031;SDS011;40928;51.076;7.950;2024-01-07T06:57:24;19.30;;;8.75;;
55031;SDS011;40928;51.076;7.950;2024-01-07T06:59:49;18.80;;;8.65;;
55031;SDS011;40928;51.076;7.950;2024-01-07T07:02:15;19.60;;;8.85;;
55031;SDS011;40928;51.076;7.950;2024-01-07T07:04:41;14.63;;;7.50;;
55031;SDS011;40928;51.076;7.950;2024-01-07T07:07:06;13.13;;;6.63;;
55031;SDS011;40928;51.076;7.950;2024-01-07T07:09:32;17.38;;;7.75;;
55031;SDS011;40928;51.076;7.950;2024-01-07T07:11:59;14.25;;;8.02;;
55031;SDS011;40928;51.076;7.950;2024-01-07T07:14:25;14.90;;;7.90;;
55031;SDS011;40928;51.076;7.950;2024-01-07T07:16:51;14.32;;;7.13;;
55031;SDS011;40928;51.076;7.950;2024-01-07T07:19:16;12.25;;;6.65;;
55031;SDS011;40928;51.076;7.950;2024-01-07T07:21:43;15.63;;;7.00;;
55031;SDS011;40928;51.076;7.950;2024-01-07T07:24:09;12.10;;;6.88;;
55031;SDS011;40928;51.076;7.950;2024-01-07T07:26:35;15.75;;;7.03;;
55031;SDS011;40928;51.076;7.950;2024-01-07T07:29:06;12.20;;;6.95;;
55031;SDS011;40928;51.076;7.950;2024-01-07T07:31:34;13.55;;;6.40;;
55031;SDS011;40928;51.076;7.950;2024-01-07T07:34:02;12.05;;;7.13;;
55031;SDS011;40928;51.076;7.950;2024-01-07T07:36:35;10.93;;;5.72;;
55031;SDS011;40928;51.076;7.950;2024-01-07T07:39:00;12.73;;;6.07;;
55031;SDS011;40928;51.076;7.950;2024-01-07T07:41:26;11.20;;;5.82;;
55031;SDS011;40928;51.076;7.950;2024-01-07T07:43:52;12.00;;;6.55;;
55031;SDS011;40928;51.076;7.950;2024-01-07T07:46:17;13.75;;;6.38;;
55031;SDS011;40928;51.076;7.950;2024-01-07T07:48:43;12.35;;;6.00;;
55031;SDS011;40928;51.076;7.950;2024-01-07T07:51:09;11.73;;;6.80;;
55031;SDS011;40928;51.076;7.950;2024-01-07T07:53:37;13.38;;;6.43;;
55031;SDS011;40928;51.076;7.950;2024-01-07T07:56:04;10.25;;;5.97;;
55031;SDS011;40928;51.076;7.950;2024-01-07T07:58:30;10.93;;;6.10;;
55031;SDS011;40928;51.076;7.950;2024-01-07T08:00:56;12.38;;;6.47;;
55031;SDS011;40928;51.076;7.950;2024-01-07T08:03:23;14.25;;;6.88;;
55031;SDS011;40928;51.076;7.950;2024-01-07T08:05:48;12.18;;;6.25;;
55031;SDS011;40928;51.076;7.950;2024-01-07T08:08:15;12.25;;;6.20;;
55031;SDS011;40928;51.076;7.950;2024-01-07T08:10:42;11.30;;;6.55;;
55031;SDS011;40928;51.076;7.950;2024-01-07T08:13:09;13.23;;;6.70;;
55031;SDS011;40928;51.076;7.950;2024-01-07T08:15:35;14.38;;;7.30;;
55031;SDS011;40928;51.076;7.950;2024-01-07T08:18:03;12.18;;;6.47;;
55031;SDS011;40928;51.076;7.950;2024-01-07T08:20:29;11.93;;;6.75;;
55031;SDS011;40928;51.076;7.950;2024-01-07T08:22:55;13.25;;;6.55;;
55031;SDS011;40928;51.076;7.950;2024-01-07T08:25:20;16.92;;;7.53;;
55031;SDS011;40928;51.076;7.950;2024-01-07T08:27:46;12.77;;;6.65;;
55031;SDS011;40928;51.076;7.950;2024-01-07T08:30:12;10.95;;;6.53;;
55031;SDS011;40928;51.076;7.950;2024-01-07T08:32:39;13.15;;;6.72;;
55031;SDS011;40928;51.076;7.950;2024-01-07T08:35:05;11.57;;;6.22;;
55031;SDS011;40928;51.076;7.950;2024-01-07T08:37:32;12.00;;;6.60;;
55031;SDS011;40928;51.076;7.950;2024-01-07T08:39:58;11.55;;;6.63;;
55031;SDS011;40928;51.076;7.950;2024-01-07T08:42:24;12.45;;;6.68;;
55031;SDS011;40928;51.076;7.950;2024-01-07T08:44:51;12.07;;;6.38;;
55031;SDS011;40928;51.076;7.950;2024-01-07T08:47:17;10.93;;;5.50;;
55031;SDS011;40928;51.076;7.950;2024-01-07T08:49:43;10.77;;;5.97;;
55031;SDS011;40928;51.076;7.950;2024-01-07T08:52:08;13.00;;;5.82;;
55031;SDS011;40928;51.076;7.950;2024-01-07T08:54:34;11.35;;;6.35;;
55031;SDS011;40928;51.076;7.950;2024-01-07T08:57:00;11.35;;;5.45;;
55031;SDS011;40928;51.076;7.950;2024-01-07T08:59:26;10.57;;;6.43;;
55031;SDS011;40928;51.076;7.950;2024-01-07T09:01:51;12.07;;;6.15;;
55031;SDS011;40928;51.076;7.950;2024-01-07T09:04:17;11.13;;;6.25;;
55031;SDS011;40928;51.076;7.950;2024-01-07T09:06:44;10.07;;;6.55;;
55031;SDS011;40928;51.076;7.950;2024-01-07T09:09:10;9.70;;;5.45;;
55031;SDS011;40928;51.076;7.950;2024-01-07T09:11:36;10.00;;;5.88;;
55031;SDS011;40928;51.076;7.950;2024-01-07T09:14:02;12.60;;;6.38;;
55031;SDS011;40928;51.076;7.950;2024-01-07T09:16:29;13.75;;;6.72;;
55031;SDS011;40928;51.076;7.950;2024-01-07T09:18:55;19.58;;;7.85;;
55031;SDS011;40928;51.076;7.950;2024-01-07T09:21:21;13.43;;;7.18;;
55031;SDS011;40928;51.076;7.950;2024-01-07T09:23:49;12.20;;;7.10;;
55031;SDS011;40928;51.076;7.950;2024-01-07T09:26:16;14.95;;;7.38;;
55031;SDS011;40928;51.076;7.950;2024-01-07T09:28:42;11.20;;;6.63;;
55031;SDS011;40928;51.076;7.950;2024-01-07T09:31:09;12.50;;;7.00;;
55031;SDS011;40928;51.076;7.950;2024-01-07T09:33:35;10.07;;;5.72;;
55031;SDS011;40928;51.076;7.950;2024-01-07T09:36:01;12.88;;;6.57;;
55031;SDS011;40928;51.076;7.950;2024-01-07T09:38:27;15.15;;;7.82;;
55031;SDS011;40928;51.076;7.950;2024-01-07T09:40:52;18.65;;;8.23;;
55031;SDS011;40928;51.076;7.950;2024-01-07T09:43:19;10.68;;;6.45;;
55031;SDS011;40928;51.076;7.950;2024-01-07T09:45:46;15.32;;;7.80;;
55031;SDS011;40928;51.076;7.950;2024-01-07T09:48:14;16.40;;;8.13;;
55031;SDS011;40928;51.076;7.950;2024-01-07T09:50:40;16.63;;;8.43;;
55031;SDS011;40928;51.076;7.950;2024-01-07T09:53:06;12.40;;;7.60;;
55031;SDS011;40928;51.076;7.950;2024-01-07T09:55:56;14.88;;;7.93;;
55031;SDS011;40928;51.076;7.950;2024-01-07T09:58:26;12.65;;;7.20;;
55031;SDS011;40928;51.076;7.950;2024-01-07T10:00:53;13.10;;;7.20;;
55031;SDS011;40928;51.076;7.950;2024-01-07T10:03:20;13.60;;;7.50;;
55031;SDS011;40928;51.076;7.950;2024-01-07T10:05:46;15.93;;;9.23;;
55031;SDS011;40928;51.076;7.950;2024-01-07T10:08:11;14.35;;;7.55;;
55031;SDS011;40928;51.076;7.950;2024-01-07T10:10:37;14.70;;;8.07;;
55031;SDS011;40928;51.076;7.950;2024-01-07T10:13:06;12.23;;;7.13;;
55031;SDS011;40928;51.076;7.950;2024-01-07T10:15:33;13.18;;;7.00;;
55031;SDS011;40928;51.076;7.950;2024-01-07T10:18:03;16.48;;;8.25;;
55031;SDS011;40928;51.076;7.950;2024-01-07T10:20:32;14.50;;;7.70;;
55031;SDS011;40928;51.076;7.950;2024-01-07T10:23:00;10.80;;;6.88;;
55031;SDS011;40928;51.076;7.950;2024-01-07T10:25:30;15.90;;;8.23;;
55031;SDS011;40928;51.076;7.950;2024-01-07T10:28:01;13.35;;;6.47;;
55031;SDS011;40928;51.076;7.950;2024-01-07T10:30:28;12.60;;;6.40;;
55031;SDS011;40928;51.076;7.950;2024-01-07T10:32:58;11.35;;;6.38;;
55031;SDS011;40928;51.076;7.950;2024-01-07T10:35:27;12.05;;;6.60;;
55031;SDS011;40928;51.076;7.950;2024-01-07T10:37:55;11.32;;;6.57;;
55031;SDS011;40928;51.076;7.950;2024-01-07T10:40:21;10.48;;;6.32;;
55031;SDS011;40928;51.076;7.950;2024-01-07T10:42:46;12.38;;;5.95;;
55031;SDS011;40928;51.076;7.950;2024-01-07T10:45:14;13.07;;;6.60;;
55031;SDS011;40928;51.076;7.950;2024-01-07T10:47:40;10.13;;;5.88;;
55031;SDS011;40928;51.076;7.950;2024-01-07T10:50:07;11.85;;;6.40;;
55031;SDS011;40928;51.076;7.950;2024-01-07T10:52:37;15.00;;;7.22;;
55031;SDS011;40928;51.076;7.950;2024-01-07T10:55:09;10.63;;;6.22;;
55031;SDS011;40928;51.076;7.950;2024-01-07T11:00:07;13.52;;;7.57;;
55031;SDS011;40928;51.076;7.950;2024-01-07T11:02:35;14.00;;;6.93;;
55031;SDS011;40928;51.076;7.950;2024-01-07T11:05:11;9.63;;;5.55;;
55031;SDS011;40928;51.076;7.950;2024-01-07T11:07:43;11.30;;;6.88;;
55031;SDS011;40928;51.076;7.950;2024-01-07T11:10:18;10.45;;;6.22;;
55031;SDS011;40928;51.076;7.950;2024-01-07T11:12:54;11.73;;;6.25;;
55031;SDS011;40928;51.076;7.950;2024-01-07T11:18:19;15.38;;;7.18;;
55031;SDS011;40928;51.076;7.950;2024-01-07T11:20:46;12.63;;;6.20;;
55031;SDS011;40928;51.076;7.950;2024-01-07T11:26:05;12.60;;;5.82;;
55031;SDS011;40928;51.076;7.950;2024-01-07T11:31:19;12.67;;;6.53;;
55031;SDS011;40928;51.076;7.950;2024-01-07T11:33:46;11.60;;;5.95;;
55031;SDS011;40928;51.076;7.950;2024-01-07T11:36:16;12.90;;;6.25;;
55031;SDS011;40928;51.076;7.950;2024-01-07T11:38:49;16.25;;;6.82;;
55031;SDS011;40928;51.076;7.950;2024-01-07T11:41:16;13.75;;;6.93;;
55031;SDS011;40928;51.076;7.950;2024-01-07T11:43:52;13.60;;;6.63;;
55031;SDS011;40928;51.076;7.950;2024-01-07T11:46:28;11.00;;;6.78;;
55031;SDS011;40928;51.076;7.950;2024-01-07T11:48:55;12.13;;;5.60;;
55031;SDS011;40928;51.076;7.950;2024-01-07T11:51:27;17.25;;;6.97;;
55031;SDS011;40928;51.076;7.950;2024-01-07T11:53:56;10.88;;;6.13;;
55031;SDS011;40928;51.076;7.950;2024-01-07T11:56:24;16.95;;;6.68;;
55031;SDS011;40928;51.076;7.950;2024-01-07T11:58:51;11.43;;;5.88;;
55031;SDS011;40928;51.076;7.950;2024-01-07T12:01:17;15.90;;;5.78;;
55031;SDS011;40928;51.076;7.950;2024-01-07T12:03:43;13.00;;;6.22;;
55031;SDS011;40928;51.076;7.950;2024-01-07T12:06:11;9.50;;;5.13;;
55031;SDS011;40928;51.076;7.950;2024-01-07T12:08:41;11.50;;;5.05;;
55031;SDS011;40928;51.076;7.950;2024-01-07T12:11:10;6.78;;;4.05;;
55031;SDS011;40928;51.076;7.950;2024-01-07T12:13:38;13.05;;;4.50;;
55031;SDS011;40928;51.076;7.950;2024-01-07T12:16:04;10.05;;;4.53;;
55031;SDS011;40928;51.076;7.950;2024-01-07T12:18:31;6.63;;;4.20;;
55031;SDS011;40928;51.076;7.950;2024-01-07T12:20:57;6.05;;;3.42;;
55031;SDS011;40928;51.076;7.950;2024-01-07T12:23:25;7.22;;;3.92;;
55031;SDS011;40928;51.076;7.950;2024-01-07T12:25:52;5.55;;;3.63;;
55031;SDS011;40928;51.076;7.950;2024-01-07T12:28:18;6.72;;;3.95;;
55031;SDS011;40928;51.076;7.950;2024-01-07T12:30:44;5.97;;;3.20;;
55031;SDS011;40928;51.076;7.950;2024-01-07T12:33:10;11.15;;;5.47;;
55031;SDS011;40928;51.076;7.950;2024-01-07T12:35:36;7.85;;;4.07;;
55031;SDS011;40928;51.076;7.950;2024-01-07T12:38:02;8.00;;;4.75;;
55031;SDS011;40928;51.076;7.950;2024-01-07T12:40:30;6.00;;;3.35;;
55031;SDS011;40928;51.076;7.950;2024-01-07T12:42:55;5.93;;;3.08;;
55031;SDS011;40928;51.076;7.950;2024-01-07T12:45:22;4.75;;;2.70;;
55031;SDS011;40928;51.076;7.950;2024-01-07T12:47:48;5.28;;;3.20;;
55031;SDS011;40928;51.076;7.950;2024-01-07T12:50:13;6.00;;;2.55;;
55031;SDS011;40928;51.076;7.950;2024-01-07T12:52:40;6.75;;;2.90;;
55031;SDS011;40928;51.076;7.950;2024-01-07T12:55:06;10.68;;;3.03;;
55031;SDS011;40928;51.076;7.950;2024-01-07T12:57:33;4.85;;;2.67;;
55031;SDS011;40928;51.076;7.950;2024-01-07T12:59:59;4.80;;;2.92;;
55031;SDS011;40928;51.076;7.950;2024-01-07T13:02:25;8.20;;;2.50;;
55031;SDS011;40928;51.076;7.950;2024-01-07T13:04:51;8.15;;;3.13;;
55031;SDS011;40928;51.076;7.950;2024-01-07T13:07:17;6.20;;;2.80;;
55031;SDS011;40928;51.076;7.950;2024-01-07T13:09:43;12.75;;;3.00;;
55031;SDS011;40928;51.076;7.950;2024-01-07T13:12:10;6.57;;;2.95;;
55031;SDS011;40928;51.076;7.950;2024-01-07T13:14:37;7.47;;;3.15;;
55031;SDS011;40928;51.076;7.950;2024-01-07T13:17:02;6.50;;;3.08;;
55031;SDS011;40928;51.076;7.950;2024-01-07T13:19:29;4.03;;;2.83;;
55031;SDS011;40928;51.076;7.950;2024-01-07T13:21:55;4.45;;;2.65;;
55031;SDS011;40928;51.076;7.950;2024-01-07T13:24:23;3.20;;;2.33;;
55031;SDS011;40928;51.076;7.950;2024-01-07T13:26:49;6.03;;;3.17;;
55031;SDS011;40928;51.076;7.950;2024-01-07T13:29:18;6.82;;;2.95;;
55031;SDS011;40928;51.076;7.950;2024-01-07T13:31:44;3.92;;;2.60;;
55031;SDS011;40928;51.076;7.950;2024-01-07T13:34:10;6.00;;;3.15;;
55031;SDS011;40928;51.076;7.950;2024-01-07T13:36:36;5.20;;;2.28;;
55031;SDS011;40928;51.076;7.950;2024-01-07T13:39:01;5.97;;;2.95;;
55031;SDS011;40928;51.076;7.950;2024-01-07T13:41:32;6.28;;;2.83;;
55031;SDS011;40928;51.076;7.950;2024-01-07T13:43:59;4.53;;;2.42;;
55031;SDS011;40928;51.076;7.950;2024-01-07T13:46:24;6.88;;;2.45;;
55031;SDS011;40928;51.076;7.950;2024-01-07T13:48:50;4.18;;;2.45;;
55031;SDS011;40928;51.076;7.950;2024-01-07T13:51:20;7.13;;;2.70;;
55031;SDS011;40928;51.076;7.950;2024-01-07T13:53:45;3.72;;;2.10;;
55031;SDS011;40928;51.076;7.950;2024-01-07T13:56:12;4.45;;;2.03;;
55031;SDS011;40928;51.076;7.950;2024-01-07T13:58:41;10.60;;;3.88;;
55031;SDS011;40928;51.076;7.950;2024-01-07T14:01:11;4.22;;;2.30;;
55031;SDS011;40928;51.076;7.950;2024-01-07T14:03:38;7.60;;;3.00;;
55031;SDS011;40928;51.076;7.950;2024-01-07T14:06:04;3.83;;;2.03;;
55031;SDS011;40928;51.076;7.950;2024-01-07T14:08:30;2.97;;;1.95;;
55031;SDS011;40928;51.076;7.950;2024-01-07T14:10:56;4.03;;;2.08;;
55031;SDS011;40928;51.076;7.950;2024-01-07T14:13:23;3.22;;;1.63;;
55031;SDS011;40928;51.076;7.950;2024-01-07T14:15:49;4.00;;;2.03;;
55031;SDS011;40928;51.076;7.950;2024-01-07T14:18:15;2.65;;;1.67;;
55031;SDS011;40928;51.076;7.950;2024-01-07T14:20:42;3.10;;;1.70;;
55031;SDS011;40928;51.076;7.950;2024-01-07T14:23:08;2.83;;;1.67;;
55031;SDS011;40928;51.076;7.950;2024-01-07T14:25:35;2.67;;;1.83;;
55031;SDS011;40928;51.076;7.950;2024-01-07T14:28:00;3.65;;;1.30;;
55031;SDS011;40928;51.076;7.950;2024-01-07T14:30:26;3.80;;;1.65;;
55031;SDS011;40928;51.076;7.950;2024-01-07T14:32:53;3.08;;;1.75;;
55031;SDS011;40928;51.076;7.950;2024-01-07T14:35:19;2.28;;;1.65;;
55031;SDS011;40928;51.076;7.950;2024-01-07T14:37:44;2.33;;;1.60;;
55031;SDS011;40928;51.076;7.950;2024-01-07T14:40:10;3.30;;;1.85;;
55031;SDS011;40928;51.076;7.950;2024-01-07T14:42:36;2.38;;;1.35;;
55031;SDS011;40928;51.076;7.950;2024-01-07T14:45:02;2.72;;;1.45;;